Letha, Idaho
Current Conditions -  °F | °C
As of 1:15 PM on Friday 31 Oct 2014 (Local Time) from KEUL Reporting Station
Overcast Overcast  
Wind Chill: 52°   Ceiling: 10000
Heat Index: 52°   Visibility: 10mi
Dew Point: 37°   Wind: 6mph
Humidity: 58%   Direction: 10°N
Pressure: 29.82"   Gusts: NA
Location:  43.89°N, 116.65°W
Report Text: KEUL 311915Z AUTO 01005KT 10SM BKN100 OVC120 11/03 A2982 RMK AO1
Loading
Personal Weather Stations






























Interactive Weather Map
Tropical Storm Tracking
New forecast layout! Learn more

10-Day Weather Forecast

Advertisements
Track Severe Weather on mobile